sensor_id;sensor_type;location;lat;lon;timestamp;P1;durP1;ratioP1;P2;durP2;ratioP2
66856;SDS011;53766;50.280;19.160;2022-09-09T00:02:20;4.78;;;2.85;;
66856;SDS011;53766;50.280;19.160;2022-09-09T00:07:54;4.45;;;2.88;;
66856;SDS011;53766;50.280;19.160;2022-09-09T00:10:34;5.15;;;3.10;;
66856;SDS011;53766;50.280;19.160;2022-09-09T00:15:47;3.22;;;2.72;;
66856;SDS011;53766;50.280;19.160;2022-09-09T00:21:17;7.65;;;2.72;;
66856;SDS011;53766;50.280;19.160;2022-09-09T00:23:49;3.40;;;2.78;;
66856;SDS011;53766;50.280;19.160;2022-09-09T00:26:35;5.50;;;2.85;;
66856;SDS011;53766;50.280;19.160;2022-09-09T00:29:23;4.53;;;2.53;;
66856;SDS011;53766;50.280;19.160;2022-09-09T00:32:00;4.55;;;2.53;;
66856;SDS011;53766;50.280;19.160;2022-09-09T00:34:39;4.20;;;2.63;;
66856;SDS011;53766;50.280;19.160;2022-09-09T00:37:30;7.03;;;3.03;;
66856;SDS011;53766;50.280;19.160;2022-09-09T00:39:59;3.30;;;2.63;;
66856;SDS011;53766;50.280;19.160;2022-09-09T00:42:34;5.82;;;2.95;;
66856;SDS011;53766;50.280;19.160;2022-09-09T00:45:17;3.88;;;2.72;;
66856;SDS011;53766;50.280;19.160;2022-09-09T00:48:06;4.72;;;2.42;;
66856;SDS011;53766;50.280;19.160;2022-09-09T00:56:14;5.28;;;2.40;;
66856;SDS011;53766;50.280;19.160;2022-09-09T00:59:32;3.70;;;2.50;;
66856;SDS011;53766;50.280;19.160;2022-09-09T01:01:54;3.80;;;2.45;;
66856;SDS011;53766;50.280;19.160;2022-09-09T01:04:31;4.90;;;2.70;;
66856;SDS011;53766;50.280;19.160;2022-09-09T01:07:16;3.33;;;2.45;;
66856;SDS011;53766;50.280;19.160;2022-09-09T01:10:01;3.28;;;2.45;;
66856;SDS011;53766;50.280;19.160;2022-09-09T01:12:41;3.53;;;2.40;;
66856;SDS011;53766;50.280;19.160;2022-09-09T01:15:12;3.58;;;2.20;;
66856;SDS011;53766;50.280;19.160;2022-09-09T01:17:50;3.30;;;2.50;;
66856;SDS011;53766;50.280;19.160;2022-09-09T01:28:33;6.03;;;2.58;;
66856;SDS011;53766;50.280;19.160;2022-09-09T01:31:05;2.67;;;2.20;;
66856;SDS011;53766;50.280;19.160;2022-09-09T01:33:34;3.50;;;2.60;;
66856;SDS011;53766;50.280;19.160;2022-09-09T01:38:59;2.72;;;2.22;;
66856;SDS011;53766;50.280;19.160;2022-09-09T01:41:26;2.60;;;2.25;;
66856;SDS011;53766;50.280;19.160;2022-09-09T01:43:54;4.05;;;2.17;;
66856;SDS011;53766;50.280;19.160;2022-09-09T01:46:23;3.80;;;2.20;;
66856;SDS011;53766;50.280;19.160;2022-09-09T01:48:51;3.72;;;2.25;;
66856;SDS011;53766;50.280;19.160;2022-09-09T01:51:20;3.63;;;2.35;;
66856;SDS011;53766;50.280;19.160;2022-09-09T01:53:48;4.60;;;2.50;;
66856;SDS011;53766;50.280;19.160;2022-09-09T02:07:03;3.47;;;2.63;;
66856;SDS011;53766;50.280;19.160;2022-09-09T02:09:36;4.47;;;2.72;;
66856;SDS011;53766;50.280;19.160;2022-09-09T02:12:10;4.43;;;2.53;;
66856;SDS011;53766;50.280;19.160;2022-09-09T02:14:42;7.10;;;2.90;;
66856;SDS011;53766;50.280;19.160;2022-09-09T02:17:22;4.03;;;2.67;;
66856;SDS011;53766;50.280;19.160;2022-09-09T02:20:05;3.95;;;2.50;;
66856;SDS011;53766;50.280;19.160;2022-09-09T02:22:35;3.47;;;2.28;;
66856;SDS011;53766;50.280;19.160;2022-09-09T02:25:07;3.13;;;2.42;;
66856;SDS011;53766;50.280;19.160;2022-09-09T02:27:37;3.85;;;2.63;;
66856;SDS011;53766;50.280;19.160;2022-09-09T02:30:07;3.97;;;2.70;;
66856;SDS011;53766;50.280;19.160;2022-09-09T02:32:36;4.57;;;2.58;;
66856;SDS011;53766;50.280;19.160;2022-09-09T02:35:07;3.83;;;2.80;;
66856;SDS011;53766;50.280;19.160;2022-09-09T02:37:39;4.88;;;2.67;;
66856;SDS011;53766;50.280;19.160;2022-09-09T02:40:09;3.63;;;2.40;;
66856;SDS011;53766;50.280;19.160;2022-09-09T02:42:39;4.40;;;2.35;;
66856;SDS011;53766;50.280;19.160;2022-09-09T02:45:12;5.50;;;3.08;;
66856;SDS011;53766;50.280;19.160;2022-09-09T02:55:59;4.07;;;2.78;;
66856;SDS011;53766;50.280;19.160;2022-09-09T02:58:33;4.88;;;2.50;;
66856;SDS011;53766;50.280;19.160;2022-09-09T03:01:01;3.63;;;2.70;;
66856;SDS011;53766;50.280;19.160;2022-09-09T03:03:30;4.13;;;2.50;;
66856;SDS011;53766;50.280;19.160;2022-09-09T03:05:58;3.72;;;2.38;;
66856;SDS011;53766;50.280;19.160;2022-09-09T03:08:26;4.53;;;2.33;;
66856;SDS011;53766;50.280;19.160;2022-09-09T03:10:55;4.85;;;3.00;;
66856;SDS011;53766;50.280;19.160;2022-09-09T03:13:25;5.68;;;2.72;;
66856;SDS011;53766;50.280;19.160;2022-09-09T03:15:53;5.25;;;2.65;;
66856;SDS011;53766;50.280;19.160;2022-09-09T03:18:20;3.83;;;2.53;;
66856;SDS011;53766;50.280;19.160;2022-09-09T03:20:48;4.25;;;2.50;;
66856;SDS011;53766;50.280;19.160;2022-09-09T03:23:15;4.55;;;2.70;;
66856;SDS011;53766;50.280;19.160;2022-09-09T03:25:46;3.20;;;2.47;;
66856;SDS011;53766;50.280;19.160;2022-09-09T03:28:15;5.75;;;3.00;;
66856;SDS011;53766;50.280;19.160;2022-09-09T03:30:43;4.40;;;2.53;;
66856;SDS011;53766;50.280;19.160;2022-09-09T03:33:10;4.93;;;2.47;;
66856;SDS011;53766;50.280;19.160;2022-09-09T03:35:37;4.47;;;2.85;;
66856;SDS011;53766;50.280;19.160;2022-09-09T03:38:06;4.63;;;2.70;;
66856;SDS011;53766;50.280;19.160;2022-09-09T03:40:34;5.43;;;2.92;;
66856;SDS011;53766;50.280;19.160;2022-09-09T03:43:02;4.90;;;3.03;;
66856;SDS011;53766;50.280;19.160;2022-09-09T03:45:29;5.68;;;2.63;;
66856;SDS011;53766;50.280;19.160;2022-09-09T03:47:57;4.90;;;2.70;;
66856;SDS011;53766;50.280;19.160;2022-09-09T03:50:25;5.20;;;3.10;;
66856;SDS011;53766;50.280;19.160;2022-09-09T03:52:52;6.85;;;2.78;;
66856;SDS011;53766;50.280;19.160;2022-09-09T03:55:19;3.78;;;2.53;;
66856;SDS011;53766;50.280;19.160;2022-09-09T03:57:47;5.53;;;3.00;;
66856;SDS011;53766;50.280;19.160;2022-09-09T04:00:15;4.15;;;2.60;;
66856;SDS011;53766;50.280;19.160;2022-09-09T04:02:42;4.35;;;2.65;;
66856;SDS011;53766;50.280;19.160;2022-09-09T04:05:10;5.53;;;2.88;;
66856;SDS011;53766;50.280;19.160;2022-09-09T04:07:38;6.35;;;2.95;;
66856;SDS011;53766;50.280;19.160;2022-09-09T04:10:05;3.90;;;2.55;;
66856;SDS011;53766;50.280;19.160;2022-09-09T04:12:34;4.82;;;2.70;;
66856;SDS011;53766;50.280;19.160;2022-09-09T04:15:02;6.65;;;2.70;;
66856;SDS011;53766;50.280;19.160;2022-09-09T04:17:30;6.03;;;2.70;;
66856;SDS011;53766;50.280;19.160;2022-09-09T04:19:58;4.20;;;2.50;;
66856;SDS011;53766;50.280;19.160;2022-09-09T04:22:26;3.60;;;2.55;;
66856;SDS011;53766;50.280;19.160;2022-09-09T04:24:53;4.85;;;2.50;;
66856;SDS011;53766;50.280;19.160;2022-09-09T04:27:20;4.88;;;2.78;;
66856;SDS011;53766;50.280;19.160;2022-09-09T04:29:48;4.05;;;2.40;;
66856;SDS011;53766;50.280;19.160;2022-09-09T04:32:15;6.25;;;2.35;;
66856;SDS011;53766;50.280;19.160;2022-09-09T04:34:43;6.60;;;2.70;;
66856;SDS011;53766;50.280;19.160;2022-09-09T04:37:12;4.80;;;2.50;;
66856;SDS011;53766;50.280;19.160;2022-09-09T04:39:39;4.95;;;2.70;;
66856;SDS011;53766;50.280;19.160;2022-09-09T04:42:06;4.68;;;2.30;;
66856;SDS011;53766;50.280;19.160;2022-09-09T04:44:34;3.05;;;2.30;;
66856;SDS011;53766;50.280;19.160;2022-09-09T04:47:02;7.30;;;2.83;;
66856;SDS011;53766;50.280;19.160;2022-09-09T04:49:29;3.47;;;2.17;;
66856;SDS011;53766;50.280;19.160;2022-09-09T04:51:58;5.45;;;2.40;;
66856;SDS011;53766;50.280;19.160;2022-09-09T04:54:25;4.07;;;2.30;;
66856;SDS011;53766;50.280;19.160;2022-09-09T04:56:53;5.55;;;2.38;;
66856;SDS011;53766;50.280;19.160;2022-09-09T04:59:23;5.28;;;2.60;;
66856;SDS011;53766;50.280;19.160;2022-09-09T05:01:50;5.32;;;2.40;;
66856;SDS011;53766;50.280;19.160;2022-09-09T05:04:19;8.63;;;2.33;;
66856;SDS011;53766;50.280;19.160;2022-09-09T05:06:46;3.78;;;2.55;;
66856;SDS011;53766;50.280;19.160;2022-09-09T05:09:14;6.95;;;2.17;;
66856;SDS011;53766;50.280;19.160;2022-09-09T05:11:41;7.00;;;2.22;;
66856;SDS011;53766;50.280;19.160;2022-09-09T05:14:09;7.20;;;2.45;;
66856;SDS011;53766;50.280;19.160;2022-09-09T05:16:38;7.65;;;2.25;;
66856;SDS011;53766;50.280;19.160;2022-09-09T05:19:06;5.57;;;2.70;;
66856;SDS011;53766;50.280;19.160;2022-09-09T05:21:36;5.18;;;2.97;;
66856;SDS011;53766;50.280;19.160;2022-09-09T05:24:03;5.30;;;2.10;;
66856;SDS011;53766;50.280;19.160;2022-09-09T05:26:31;10.98;;;2.40;;
66856;SDS011;53766;50.280;19.160;2022-09-09T05:28:59;6.85;;;2.42;;
66856;SDS011;53766;50.280;19.160;2022-09-09T05:31:29;7.57;;;2.47;;
66856;SDS011;53766;50.280;19.160;2022-09-09T05:33:57;5.25;;;2.40;;
66856;SDS011;53766;50.280;19.160;2022-09-09T05:36:26;4.53;;;2.50;;
66856;SDS011;53766;50.280;19.160;2022-09-09T05:38:53;5.70;;;2.30;;
66856;SDS011;53766;50.280;19.160;2022-09-09T05:41:21;10.10;;;2.60;;
66856;SDS011;53766;50.280;19.160;2022-09-09T05:43:50;6.70;;;1.98;;
66856;SDS011;53766;50.280;19.160;2022-09-09T05:46:18;4.90;;;2.50;;
66856;SDS011;53766;50.280;19.160;2022-09-09T05:48:48;7.63;;;2.30;;
66856;SDS011;53766;50.280;19.160;2022-09-09T05:51:19;3.10;;;2.15;;
66856;SDS011;53766;50.280;19.160;2022-09-09T05:53:51;5.53;;;2.22;;
66856;SDS011;53766;50.280;19.160;2022-09-09T05:56:23;4.00;;;1.85;;
66856;SDS011;53766;50.280;19.160;2022-09-09T05:58:52;3.92;;;2.20;;
66856;SDS011;53766;50.280;19.160;2022-09-09T06:03:49;3.30;;;2.08;;
66856;SDS011;53766;50.280;19.160;2022-09-09T06:06:18;8.68;;;2.15;;
66856;SDS011;53766;50.280;19.160;2022-09-09T06:08:50;3.78;;;2.10;;
66856;SDS011;53766;50.280;19.160;2022-09-09T06:11:20;4.60;;;1.80;;
66856;SDS011;53766;50.280;19.160;2022-09-09T06:13:52;5.22;;;2.25;;
66856;SDS011;53766;50.280;19.160;2022-09-09T06:16:22;4.70;;;2.05;;
66856;SDS011;53766;50.280;19.160;2022-09-09T06:18:52;5.28;;;2.42;;
66856;SDS011;53766;50.280;19.160;2022-09-09T06:21:22;3.88;;;2.40;;
66856;SDS011;53766;50.280;19.160;2022-09-09T06:23:50;5.32;;;2.40;;
66856;SDS011;53766;50.280;19.160;2022-09-09T06:26:30;4.85;;;2.40;;
66856;SDS011;53766;50.280;19.160;2022-09-09T06:29:00;4.43;;;2.05;;
66856;SDS011;53766;50.280;19.160;2022-09-09T06:31:31;7.43;;;2.40;;
66856;SDS011;53766;50.280;19.160;2022-09-09T06:34:01;6.45;;;2.60;;
66856;SDS011;53766;50.280;19.160;2022-09-09T06:36:32;5.80;;;3.38;;
66856;SDS011;53766;50.280;19.160;2022-09-09T06:39:02;12.20;;;4.57;;
66856;SDS011;53766;50.280;19.160;2022-09-09T06:41:30;5.68;;;3.28;;
66856;SDS011;53766;50.280;19.160;2022-09-09T06:43:58;4.35;;;2.38;;
66856;SDS011;53766;50.280;19.160;2022-09-09T06:46:27;4.63;;;2.40;;
66856;SDS011;53766;50.280;19.160;2022-09-09T06:48:57;6.70;;;2.60;;
66856;SDS011;53766;50.280;19.160;2022-09-09T06:51:27;4.65;;;2.47;;
66856;SDS011;53766;50.280;19.160;2022-09-09T06:53:59;6.97;;;2.40;;
66856;SDS011;53766;50.280;19.160;2022-09-09T06:56:30;7.43;;;3.00;;
66856;SDS011;53766;50.280;19.160;2022-09-09T06:59:07;4.78;;;2.80;;
66856;SDS011;53766;50.280;19.160;2022-09-09T07:01:37;5.95;;;2.70;;
66856;SDS011;53766;50.280;19.160;2022-09-09T07:04:07;5.20;;;2.58;;
66856;SDS011;53766;50.280;19.160;2022-09-09T07:06:37;5.47;;;2.60;;
66856;SDS011;53766;50.280;19.160;2022-09-09T07:09:08;4.65;;;2.40;;
66856;SDS011;53766;50.280;19.160;2022-09-09T07:11:38;6.18;;;2.80;;
66856;SDS011;53766;50.280;19.160;2022-09-09T07:14:08;10.35;;;2.83;;
66856;SDS011;53766;50.280;19.160;2022-09-09T07:16:36;6.88;;;3.35;;
66856;SDS011;53766;50.280;19.160;2022-09-09T07:19:05;4.93;;;2.70;;
66856;SDS011;53766;50.280;19.160;2022-09-09T07:21:33;7.75;;;2.55;;
66856;SDS011;53766;50.280;19.160;2022-09-09T07:24:00;7.53;;;2.97;;
66856;SDS011;53766;50.280;19.160;2022-09-09T07:26:29;6.80;;;2.20;;
66856;SDS011;53766;50.280;19.160;2022-09-09T07:28:57;3.92;;;2.40;;
66856;SDS011;53766;50.280;19.160;2022-09-09T07:31:29;6.35;;;2.50;;
66856;SDS011;53766;50.280;19.160;2022-09-09T07:33:58;6.43;;;2.40;;
66856;SDS011;53766;50.280;19.160;2022-09-09T07:36:28;6.05;;;2.60;;
66856;SDS011;53766;50.280;19.160;2022-09-09T07:39:00;6.10;;;2.70;;
66856;SDS011;53766;50.280;19.160;2022-09-09T07:41:35;5.65;;;3.00;;
66856;SDS011;53766;50.280;19.160;2022-09-09T07:44:06;5.28;;;2.47;;
66856;SDS011;53766;50.280;19.160;2022-09-09T07:46:35;5.63;;;2.72;;
66856;SDS011;53766;50.280;19.160;2022-09-09T07:49:03;5.63;;;2.25;;
66856;SDS011;53766;50.280;19.160;2022-09-09T07:51:32;5.35;;;2.60;;
66856;SDS011;53766;50.280;19.160;2022-09-09T07:54:04;4.07;;;2.20;;
66856;SDS011;53766;50.280;19.160;2022-09-09T07:56:33;4.57;;;2.22;;
66856;SDS011;53766;50.280;19.160;2022-09-09T07:59:01;3.95;;;2.40;;
66856;SDS011;53766;50.280;19.160;2022-09-09T08:01:30;4.35;;;1.90;;
66856;SDS011;53766;50.280;19.160;2022-09-09T08:04:01;4.55;;;2.22;;
66856;SDS011;53766;50.280;19.160;2022-09-09T08:06:33;7.53;;;2.67;;
66856;SDS011;53766;50.280;19.160;2022-09-09T08:09:06;3.95;;;2.08;;
66856;SDS011;53766;50.280;19.160;2022-09-09T08:11:35;5.70;;;2.15;;
66856;SDS011;53766;50.280;19.160;2022-09-09T08:14:08;5.00;;;2.15;;
66856;SDS011;53766;50.280;19.160;2022-09-09T08:16:38;3.60;;;1.90;;
66856;SDS011;53766;50.280;19.160;2022-09-09T08:19:07;3.97;;;2.38;;
66856;SDS011;53766;50.280;19.160;2022-09-09T08:21:35;4.65;;;2.08;;
66856;SDS011;53766;50.280;19.160;2022-09-09T08:24:04;3.30;;;1.95;;
66856;SDS011;53766;50.280;19.160;2022-09-09T08:26:33;3.63;;;1.77;;
66856;SDS011;53766;50.280;19.160;2022-09-09T08:29:06;4.80;;;2.45;;
66856;SDS011;53766;50.280;19.160;2022-09-09T08:31:45;2.83;;;1.85;;
66856;SDS011;53766;50.280;19.160;2022-09-09T08:34:17;4.53;;;1.88;;
66856;SDS011;53766;50.280;19.160;2022-09-09T08:36:48;4.47;;;2.10;;
66856;SDS011;53766;50.280;19.160;2022-09-09T08:39:17;4.40;;;2.00;;
66856;SDS011;53766;50.280;19.160;2022-09-09T08:47:06;4.80;;;1.85;;
66856;SDS011;53766;50.280;19.160;2022-09-09T08:52:41;4.70;;;1.95;;
66856;SDS011;53766;50.280;19.160;2022-09-09T08:57:56;2.65;;;1.55;;
66856;SDS011;53766;50.280;19.160;2022-09-09T09:00:34;3.10;;;1.52;;
66856;SDS011;53766;50.280;19.160;2022-09-09T09:03:31;3.35;;;1.52;;
66856;SDS011;53766;50.280;19.160;2022-09-09T09:09:21;2.88;;;1.50;;
66856;SDS011;53766;50.280;19.160;2022-09-09T09:11:59;2.72;;;1.30;;
66856;SDS011;53766;50.280;19.160;2022-09-09T09:14:29;3.45;;;1.60;;
66856;SDS011;53766;50.280;19.160;2022-09-09T09:17:04;4.20;;;1.85;;
66856;SDS011;53766;50.280;19.160;2022-09-09T09:19:38;2.60;;;1.60;;
66856;SDS011;53766;50.280;19.160;2022-09-09T09:22:14;2.40;;;1.45;;
66856;SDS011;53766;50.280;19.160;2022-09-09T09:27:36;4.22;;;1.67;;
66856;SDS011;53766;50.280;19.160;2022-09-09T09:30:17;3.38;;;1.40;;
66856;SDS011;53766;50.280;19.160;2022-09-09T09:32:57;2.97;;;1.45;;
66856;SDS011;53766;50.280;19.160;2022-09-09T09:35:26;4.60;;;1.60;;
66856;SDS011;53766;50.280;19.160;2022-09-09T09:37:54;2.92;;;1.40;;
66856;SDS011;53766;50.280;19.160;2022-09-09T09:40:48;3.47;;;1.65;;
66856;SDS011;53766;50.280;19.160;2022-09-09T09:43:26;8.60;;;1.70;;
66856;SDS011;53766;50.280;19.160;2022-09-09T09:46:17;4.93;;;1.70;;
66856;SDS011;53766;50.280;19.160;2022-09-09T09:49:01;5.22;;;1.70;;
66856;SDS011;53766;50.280;19.160;2022-09-09T09:51:31;3.97;;;1.60;;
66856;SDS011;53766;50.280;19.160;2022-09-09T09:56:50;2.45;;;1.27;;
66856;SDS011;53766;50.280;19.160;2022-09-09T10:02:20;3.13;;;1.38;;
66856;SDS011;53766;50.280;19.160;2022-09-09T10:05:02;2.78;;;1.40;;
66856;SDS011;53766;50.280;19.160;2022-09-09T10:07:31;5.15;;;1.75;;
66856;SDS011;53766;50.280;19.160;2022-09-09T10:10:00;2.22;;;1.30;;
66856;SDS011;53766;50.280;19.160;2022-09-09T10:12:36;2.45;;;1.33;;
66856;SDS011;53766;50.280;19.160;2022-09-09T10:30:36;4.75;;;1.30;;
66856;SDS011;53766;50.280;19.160;2022-09-09T10:33:32;5.70;;;1.60;;
66856;SDS011;53766;50.280;19.160;2022-09-09T10:41:35;2.83;;;1.20;;
66856;SDS011;53766;50.280;19.160;2022-09-09T10:44:17;2.70;;;1.20;;
66856;SDS011;53766;50.280;19.160;2022-09-09T10:47:08;3.42;;;1.60;;
66856;SDS011;53766;50.280;19.160;2022-09-09T10:55:27;1.95;;;1.23;;
66856;SDS011;53766;50.280;19.160;2022-09-09T10:58:12;2.85;;;1.30;;
66856;SDS011;53766;50.280;19.160;2022-09-09T11:00:58;2.70;;;1.10;;
66856;SDS011;53766;50.280;19.160;2022-09-09T11:03:37;2.80;;;1.02;;
66856;SDS011;53766;50.280;19.160;2022-09-09T11:06:11;1.92;;;1.13;;
66856;SDS011;53766;50.280;19.160;2022-09-09T11:08:42;4.40;;;0.90;;
66856;SDS011;53766;50.280;19.160;2022-09-09T11:14:29;3.15;;;1.10;;
66856;SDS011;53766;50.280;19.160;2022-09-09T11:17:03;2.95;;;1.10;;
66856;SDS011;53766;50.280;19.160;2022-09-09T11:19:41;2.33;;;1.25;;
66856;SDS011;53766;50.280;19.160;2022-09-09T11:30:57;3.55;;;1.23;;
66856;SDS011;53766;50.280;19.160;2022-09-09T11:38:56;4.75;;;1.27;;
66856;SDS011;53766;50.280;19.160;2022-09-09T11:41:36;4.85;;;1.20;;
66856;SDS011;53766;50.280;19.160;2022-09-09T11:44:17;2.72;;;1.00;;
66856;SDS011;53766;50.280;19.160;2022-09-09T11:46:49;2.60;;;1.13;;
66856;SDS011;53766;50.280;19.160;2022-09-09T11:49:28;3.60;;;1.25;;
66856;SDS011;53766;50.280;19.160;2022-09-09T11:52:18;2.42;;;1.00;;
66856;SDS011;53766;50.280;19.160;2022-09-09T11:54:51;1.52;;;0.90;;
66856;SDS011;53766;50.280;19.160;2022-09-09T11:59:57;1.77;;;0.98;;
66856;SDS011;53766;50.280;19.160;2022-09-09T12:02:28;4.25;;;1.20;;
66856;SDS011;53766;50.280;19.160;2022-09-09T12:05:05;2.15;;;1.00;;
66856;SDS011;53766;50.280;19.160;2022-09-09T12:07:37;1.75;;;0.90;;
66856;SDS011;53766;50.280;19.160;2022-09-09T12:10:29;3.33;;;1.10;;
66856;SDS011;53766;50.280;19.160;2022-09-09T12:15:53;2.55;;;1.10;;
66856;SDS011;53766;50.280;19.160;2022-09-09T12:21:06;2.13;;;1.17;;
66856;SDS011;53766;50.280;19.160;2022-09-09T12:23:47;2.50;;;1.08;;
66856;SDS011;53766;50.280;19.160;2022-09-09T12:31:48;3.15;;;1.15;;
66856;SDS011;53766;50.280;19.160;2022-09-09T12:40:04;3.78;;;1.00;;
66856;SDS011;53766;50.280;19.160;2022-09-09T12:42:45;1.85;;;0.80;;
66856;SDS011;53766;50.280;19.160;2022-09-09T12:45:19;4.15;;;1.00;;
66856;SDS011;53766;50.280;19.160;2022-09-09T12:50:19;1.80;;;0.90;;
66856;SDS011;53766;50.280;19.160;2022-09-09T12:52:58;2.88;;;0.90;;
66856;SDS011;53766;50.280;19.160;2022-09-09T12:55:30;2.00;;;0.88;;
66856;SDS011;53766;50.280;19.160;2022-09-09T12:58:00;2.35;;;1.23;;
66856;SDS011;53766;50.280;19.160;2022-09-09T13:00:33;2.38;;;0.80;;
66856;SDS011;53766;50.280;19.160;2022-09-09T13:03:02;2.38;;;0.80;;
66856;SDS011;53766;50.280;19.160;2022-09-09T13:05:41;2.72;;;1.13;;
66856;SDS011;53766;50.280;19.160;2022-09-09T13:08:10;2.50;;;1.00;;
66856;SDS011;53766;50.280;19.160;2022-09-09T13:10:43;3.20;;;1.00;;
66856;SDS011;53766;50.280;19.160;2022-09-09T13:16:02;1.80;;;1.05;;
66856;SDS011;53766;50.280;19.160;2022-09-09T13:18:35;4.28;;;1.10;;
66856;SDS011;53766;50.280;19.160;2022-09-09T13:21:05;1.55;;;0.90;;
66856;SDS011;53766;50.280;19.160;2022-09-09T13:23:33;2.42;;;0.95;;
66856;SDS011;53766;50.280;19.160;2022-09-09T13:26:04;1.83;;;0.80;;
66856;SDS011;53766;50.280;19.160;2022-09-09T13:28:34;1.67;;;0.85;;
66856;SDS011;53766;50.280;19.160;2022-09-09T13:31:05;1.98;;;0.93;;
66856;SDS011;53766;50.280;19.160;2022-09-09T13:33:48;4.05;;;1.08;;
66856;SDS011;53766;50.280;19.160;2022-09-09T13:36:15;1.80;;;0.90;;
66856;SDS011;53766;50.280;19.160;2022-09-09T13:41:18;3.72;;;1.15;;
66856;SDS011;53766;50.280;19.160;2022-09-09T13:43:48;3.28;;;1.10;;
66856;SDS011;53766;50.280;19.160;2022-09-09T13:51:43;3.25;;;1.00;;
66856;SDS011;53766;50.280;19.160;2022-09-09T13:54:14;1.83;;;0.95;;
66856;SDS011;53766;50.280;19.160;2022-09-09T13:56:43;2.90;;;1.08;;
66856;SDS011;53766;50.280;19.160;2022-09-09T13:59:12;2.50;;;0.95;;
66856;SDS011;53766;50.280;19.160;2022-09-09T14:01:46;1.92;;;0.90;;
66856;SDS011;53766;50.280;19.160;2022-09-09T14:04:13;0.90;;;0.70;;
66856;SDS011;53766;50.280;19.160;2022-09-09T14:06:41;1.17;;;0.80;;
66856;SDS011;53766;50.280;19.160;2022-09-09T14:09:12;3.53;;;0.90;;
66856;SDS011;53766;50.280;19.160;2022-09-09T14:11:43;1.92;;;1.00;;
66856;SDS011;53766;50.280;19.160;2022-09-09T14:14:12;2.78;;;1.20;;
66856;SDS011;53766;50.280;19.160;2022-09-09T14:16:40;3.22;;;1.13;;
66856;SDS011;53766;50.280;19.160;2022-09-09T14:19:08;3.67;;;1.00;;
66856;SDS011;53766;50.280;19.160;2022-09-09T14:21:36;1.80;;;0.88;;
66856;SDS011;53766;50.280;19.160;2022-09-09T14:24:04;3.00;;;1.08;;
66856;SDS011;53766;50.280;19.160;2022-09-09T14:26:31;2.85;;;0.88;;
66856;SDS011;53766;50.280;19.160;2022-09-09T14:28:59;2.85;;;1.02;;
66856;SDS011;53766;50.280;19.160;2022-09-09T14:31:28;1.75;;;1.00;;
66856;SDS011;53766;50.280;19.160;2022-09-09T14:33:56;1.92;;;0.95;;
66856;SDS011;53766;50.280;19.160;2022-09-09T14:36:23;1.73;;;1.00;;
66856;SDS011;53766;50.280;19.160;2022-09-09T14:38:51;2.10;;;0.90;;
66856;SDS011;53766;50.280;19.160;2022-09-09T14:41:19;1.90;;;1.00;;
66856;SDS011;53766;50.280;19.160;2022-09-09T14:43:49;4.20;;;1.10;;
66856;SDS011;53766;50.280;19.160;2022-09-09T14:46:18;3.70;;;0.90;;
66856;SDS011;53766;50.280;19.160;2022-09-09T14:48:47;2.35;;;0.93;;
66856;SDS011;53766;50.280;19.160;2022-09-09T14:51:19;4.30;;;1.08;;
66856;SDS011;53766;50.280;19.160;2022-09-09T14:53:52;1.83;;;0.90;;
66856;SDS011;53766;50.280;19.160;2022-09-09T14:56:21;1.55;;;0.80;;
66856;SDS011;53766;50.280;19.160;2022-09-09T14:58:52;3.17;;;1.13;;
66856;SDS011;53766;50.280;19.160;2022-09-09T15:01:22;1.38;;;0.90;;
66856;SDS011;53766;50.280;19.160;2022-09-09T15:03:53;1.85;;;0.80;;
66856;SDS011;53766;50.280;19.160;2022-09-09T15:06:23;2.53;;;0.90;;
66856;SDS011;53766;50.280;19.160;2022-09-09T15:08:52;2.97;;;1.05;;
66856;SDS011;53766;50.280;19.160;2022-09-09T15:11:21;1.50;;;0.90;;
66856;SDS011;53766;50.280;19.160;2022-09-09T15:13:51;1.48;;;1.02;;
66856;SDS011;53766;50.280;19.160;2022-09-09T15:16:23;1.90;;;0.90;;
66856;SDS011;53766;50.280;19.160;2022-09-09T15:18:54;2.22;;;1.00;;
66856;SDS011;53766;50.280;19.160;2022-09-09T15:21:27;3.42;;;1.10;;
66856;SDS011;53766;50.280;19.160;2022-09-09T15:23:56;3.08;;;1.20;;
66856;SDS011;53766;50.280;19.160;2022-09-09T15:26:24;4.93;;;1.20;;
66856;SDS011;53766;50.280;19.160;2022-09-09T15:28:52;2.22;;;0.98;;
66856;SDS011;53766;50.280;19.160;2022-09-09T15:31:24;5.82;;;1.00;;
66856;SDS011;53766;50.280;19.160;2022-09-09T15:33:58;3.75;;;1.10;;
66856;SDS011;53766;50.280;19.160;2022-09-09T15:36:38;2.47;;;1.10;;
66856;SDS011;53766;50.280;19.160;2022-09-09T15:39:11;2.97;;;1.10;;
66856;SDS011;53766;50.280;19.160;2022-09-09T15:41:44;7.47;;;1.20;;
66856;SDS011;53766;50.280;19.160;2022-09-09T15:44:14;2.25;;;1.00;;
66856;SDS011;53766;50.280;19.160;2022-09-09T15:46:43;2.63;;;1.20;;
66856;SDS011;53766;50.280;19.160;2022-09-09T15:49:16;7.00;;;1.15;;
66856;SDS011;53766;50.280;19.160;2022-09-09T15:51:50;1.83;;;0.90;;
66856;SDS011;53766;50.280;19.160;2022-09-09T15:54:25;3.33;;;0.85;;
66856;SDS011;53766;50.280;19.160;2022-09-09T15:56:54;4.93;;;1.20;;
66856;SDS011;53766;50.280;19.160;2022-09-09T15:59:24;2.72;;;1.08;;
66856;SDS011;53766;50.280;19.160;2022-09-09T16:01:52;3.58;;;1.30;;
66856;SDS011;53766;50.280;19.160;2022-09-09T16:04:22;2.20;;;1.00;;
66856;SDS011;53766;50.280;19.160;2022-09-09T16:06:51;2.03;;;0.95;;
66856;SDS011;53766;50.280;19.160;2022-09-09T16:09:26;4.28;;;1.20;;
66856;SDS011;53766;50.280;19.160;2022-09-09T16:11:59;3.67;;;1.13;;
66856;SDS011;53766;50.280;19.160;2022-09-09T16:14:33;4.57;;;1.38;;
66856;SDS011;53766;50.280;19.160;2022-09-09T16:17:03;3.63;;;1.10;;
66856;SDS011;53766;50.280;19.160;2022-09-09T16:19:32;4.28;;;1.20;;
66856;SDS011;53766;50.280;19.160;2022-09-09T16:22:02;2.08;;;1.10;;
66856;SDS011;53766;50.280;19.160;2022-09-09T16:24:31;2.40;;;1.10;;
66856;SDS011;53766;50.280;19.160;2022-09-09T16:26:58;3.47;;;1.30;;
66856;SDS011;53766;50.280;19.160;2022-09-09T16:29:26;6.35;;;1.58;;
66856;SDS011;53766;50.280;19.160;2022-09-09T16:31:54;4.50;;;1.20;;
66856;SDS011;53766;50.280;19.160;2022-09-09T16:34:29;4.65;;;1.45;;
66856;SDS011;53766;50.280;19.160;2022-09-09T16:36:56;5.85;;;1.27;;
66856;SDS011;53766;50.280;19.160;2022-09-09T16:39:24;2.30;;;1.30;;
66856;SDS011;53766;50.280;19.160;2022-09-09T16:41:51;4.97;;;1.42;;
66856;SDS011;53766;50.280;19.160;2022-09-09T16:44:19;4.40;;;1.20;;
66856;SDS011;53766;50.280;19.160;2022-09-09T16:46:47;3.72;;;1.40;;
66856;SDS011;53766;50.280;19.160;2022-09-09T16:49:16;6.93;;;1.45;;
66856;SDS011;53766;50.280;19.160;2022-09-09T16:51:48;3.90;;;1.40;;
66856;SDS011;53766;50.280;19.160;2022-09-09T16:54:20;6.20;;;1.45;;
66856;SDS011;53766;50.280;19.160;2022-09-09T16:56:48;3.47;;;1.30;;
66856;SDS011;53766;50.280;19.160;2022-09-09T16:59:17;4.38;;;1.38;;
66856;SDS011;53766;50.280;19.160;2022-09-09T17:01:47;4.43;;;1.65;;
66856;SDS011;53766;50.280;19.160;2022-09-09T17:04:20;5.00;;;1.58;;
66856;SDS011;53766;50.280;19.160;2022-09-09T17:06:52;2.88;;;1.40;;
66856;SDS011;53766;50.280;19.160;2022-09-09T17:09:21;3.33;;;1.40;;
66856;SDS011;53766;50.280;19.160;2022-09-09T17:11:50;6.45;;;1.77;;
66856;SDS011;53766;50.280;19.160;2022-09-09T17:14:21;1.77;;;1.05;;
66856;SDS011;53766;50.280;19.160;2022-09-09T17:16:49;4.60;;;1.58;;
66856;SDS011;53766;50.280;19.160;2022-09-09T17:19:17;4.20;;;1.17;;
66856;SDS011;53766;50.280;19.160;2022-09-09T17:21:45;4.43;;;1.70;;
66856;SDS011;53766;50.280;19.160;2022-09-09T17:24:35;4.00;;;1.40;;
66856;SDS011;53766;50.280;19.160;2022-09-09T17:27:06;5.50;;;1.60;;